Time;durP1;ratioP1;P1;durP2;ratioP2;P2;SDS_P1;SDS_P2;PMS_P1;PMS_P2;Temp;Humidity;BMP_temperature;BMP_pressure;BME280_temperature;BME280_humidity;BME280_pressure;Samples;Min_cycle;Max_cycle;Signal;HPM_P1;HPM_P2
2021/09/19 00:00:00;;;;;;;5.55;4.20;;;15.80;95.30;;;;;;5108614;28;20031;-76
2021/09/19 00:02:25;;;;;;;5.68;4.07;;;15.90;95.30;;;;;;5096818;28;20016;-75
2021/09/19 00:04:51;;;;;;;6.47;4.35;;;15.90;95.30;;;;;;5112584;28;20031;-75
2021/09/19 00:07:17;;;;;;;6.35;4.50;;;15.90;95.30;;;;;;5132231;27;20105;-76
2021/09/19 00:09:42;;;;;;;5.53;4.50;;;15.80;95.20;;;;;;5140354;27;20035;-75
2021/09/19 00:12:08;;;;;;;7.28;4.35;;;15.80;95.30;;;;;;5091980;28;20028;-75
2021/09/19 00:14:36;;;;;;;5.88;4.07;;;15.80;95.30;;;;;;5095904;28;20492;-75
2021/09/19 00:17:02;;;;;;;7.68;4.55;;;15.80;95.30;;;;;;5100238;28;20032;-75
2021/09/19 00:19:28;;;;;;;5.57;4.38;;;15.80;95.20;;;;;;5140065;27;20051;-74
2021/09/19 00:21:54;;;;;;;5.93;4.38;;;15.80;95.30;;;;;;5097895;28;20055;-75
2021/09/19 00:24:19;;;;;;;5.53;4.32;;;15.70;95.30;;;;;;5111789;28;20126;-74
2021/09/19 00:26:45;;;;;;;6.72;3.88;;;15.70;95.30;;;;;;5101678;28;20036;-75
2021/09/19 00:29:11;;;;;;;6.78;4.03;;;15.70;95.40;;;;;;5104171;28;20082;-75
2021/09/19 00:31:36;;;;;;;5.43;4.10;;;15.70;95.40;;;;;;5142876;27;20047;-74
2021/09/19 00:34:02;;;;;;;5.68;4.03;;;15.60;95.40;;;;;;5130618;27;20028;-76
2021/09/19 00:36:28;;;;;;;5.18;4.10;;;15.60;95.40;;;;;;5109141;28;20039;-76
2021/09/19 00:38:54;;;;;;;5.75;3.95;;;15.60;95.40;;;;;;5103067;28;20028;-76
2021/09/19 00:41:20;;;;;;;4.78;3.55;;;15.60;95.40;;;;;;5135421;27;20039;-74
2021/09/19 00:43:45;;;;;;;5.47;3.75;;;15.60;95.30;;;;;;5111263;28;20034;-76
2021/09/19 00:46:11;;;;;;;5.38;3.97;;;15.50;95.30;;;;;;5098147;28;20384;-75
2021/09/19 00:48:36;;;;;;;6.75;3.72;;;15.50;95.50;;;;;;5107578;28;20070;-75
2021/09/19 00:51:03;;;;;;;6.40;3.63;;;15.40;95.50;;;;;;5136702;27;20023;-75
2021/09/19 00:53:32;;;;;;;4.35;3.45;;;15.40;95.70;;;;;;5133775;27;20024;-75
2021/09/19 00:56:00;;;;;;;4.80;3.45;;;15.40;95.50;;;;;;5143548;27;20499;-75
2021/09/19 00:58:26;;;;;;;3.72;3.13;;;15.30;95.60;;;;;;5098995;28;20639;-75
2021/09/19 01:00:52;;;;;;;4.38;3.35;;;15.30;95.60;;;;;;5105346;28;20028;-75
2021/09/19 01:03:18;;;;;;;4.15;3.40;;;15.30;95.60;;;;;;5104562;28;20167;-75
2021/09/19 01:05:44;;;;;;;5.10;3.53;;;15.30;95.50;;;;;;5097658;28;20468;-75
2021/09/19 01:08:14;;;;;;;4.70;3.83;;;15.30;95.50;;;;;;5108812;28;20030;-76
2021/09/19 01:10:40;;;;;;;5.00;3.15;;;15.40;95.60;;;;;;5133890;27;20016;-75
2021/09/19 01:13:07;;;;;;;5.22;3.65;;;15.40;95.60;;;;;;5108081;28;20024;-76
2021/09/19 01:15:33;;;;;;;4.65;3.20;;;15.30;95.40;;;;;;5114425;28;20035;-75
2021/09/19 01:18:00;;;;;;;4.30;2.92;;;15.30;95.40;;;;;;5096860;28;20020;-75
2021/09/19 01:20:26;;;;;;;4.55;3.10;;;15.30;95.70;;;;;;5108324;28;20609;-75
2021/09/19 01:23:05;;;;;;;5.68;3.13;;;15.30;95.40;;;;;;5102017;28;20030;-75
2021/09/19 01:25:32;;;;;;;4.07;2.88;;;15.30;95.40;;;;;;5133793;27;20059;-75
2021/09/19 01:27:58;;;;;;;4.63;3.00;;;15.30;95.50;;;;;;5110280;28;20110;-75
2021/09/19 01:30:24;;;;;;;3.63;2.65;;;15.30;95.30;;;;;;5130951;27;20111;-76
2021/09/19 01:32:50;;;;;;;3.13;2.72;;;15.30;95.40;;;;;;5104821;28;20419;-76
2021/09/19 01:35:16;;;;;;;3.47;2.58;;;15.30;95.30;;;;;;5103783;28;20047;-75
2021/09/19 01:37:42;;;;;;;3.28;2.78;;;15.30;95.20;;;;;;5098542;28;20039;-74
2021/09/19 01:40:09;;;;;;;5.25;2.90;;;15.30;95.20;;;;;;5142876;27;20034;-75
2021/09/19 01:42:35;;;;;;;3.50;2.88;;;15.30;95.30;;;;;;5126348;27;20028;-75
2021/09/19 01:45:01;;;;;;;4.93;2.75;;;15.10;95.20;;;;;;5101129;28;20034;-75
2021/09/19 01:47:26;;;;;;;4.05;2.70;;;15.10;95.50;;;;;;5100488;28;20028;-75
2021/09/19 01:49:52;;;;;;;3.17;2.15;;;15.10;95.40;;;;;;5110312;28;20034;-75
2021/09/19 01:52:20;;;;;;;3.75;2.60;;;15.10;95.50;;;;;;5096781;28;20024;-75
2021/09/19 01:54:46;;;;;;;4.45;2.67;;;15.10;95.60;;;;;;5104568;28;20139;-75
2021/09/19 01:57:17;;;;;;;4.05;2.42;;;15.10;95.50;;;;;;5137078;27;20027;-75
2021/09/19 01:59:45;;;;;;;4.82;2.92;;;15.10;95.60;;;;;;5131345;27;20541;-75
2021/09/19 02:02:10;;;;;;;3.17;2.47;;;15.00;95.50;;;;;;5142677;27;20024;-75
2021/09/19 02:04:39;;;;;;;3.53;2.90;;;15.00;95.50;;;;;;5132405;27;20356;-76
2021/09/19 02:07:05;;;;;;;4.03;2.63;;;15.00;95.50;;;;;;5103592;28;20050;-77
2021/09/19 02:09:30;;;;;;;4.22;2.60;;;15.00;95.60;;;;;;5107634;28;20452;-76
2021/09/19 02:11:56;;;;;;;3.65;2.47;;;14.90;95.50;;;;;;5096535;28;20461;-77
2021/09/19 02:14:22;;;;;;;4.95;2.72;;;14.90;95.50;;;;;;5095328;28;20028;-77
2021/09/19 02:16:47;;;;;;;4.03;2.47;;;14.80;95.60;;;;;;5101294;28;20031;-76
2021/09/19 02:19:13;;;;;;;4.18;2.60;;;14.80;95.70;;;;;;5100802;28;20028;-76
2021/09/19 02:21:39;;;;;;;2.88;2.30;;;14.70;95.70;;;;;;5141760;27;20067;-76
2021/09/19 02:24:04;;;;;;;5.13;3.13;;;14.70;95.80;;;;;;5129124;27;20024;-76
2021/09/19 02:26:30;;;;;;;2.88;2.42;;;14.70;95.80;;;;;;5107195;28;20039;-77
2021/09/19 02:28:56;;;;;;;3.50;2.45;;;14.70;95.80;;;;;;5125363;27;20388;-76
2021/09/19 02:31:22;;;;;;;3.08;2.22;;;14.70;95.90;;;;;;5093948;28;20088;-76
2021/09/19 02:33:47;;;;;;;4.53;2.60;;;14.70;96.00;;;;;;5094664;28;20123;-76
2021/09/19 02:36:13;;;;;;;3.08;2.70;;;14.60;95.90;;;;;;5092299;28;20043;-76
2021/09/19 02:38:39;;;;;;;2.90;2.42;;;14.60;95.80;;;;;;5094092;28;20496;-75
2021/09/19 02:41:04;;;;;;;3.58;2.40;;;14.50;95.80;;;;;;5093166;28;20024;-75
2021/09/19 02:43:30;;;;;;;3.70;2.20;;;14.50;95.80;;;;;;5093573;28;20056;-76
2021/09/19 02:45:55;;;;;;;3.45;2.53;;;14.50;95.80;;;;;;5091971;28;20035;-76
2021/09/19 02:48:21;;;;;;;3.28;2.22;;;14.50;95.90;;;;;;5092843;28;20536;-76
2021/09/19 02:50:47;;;;;;;3.65;2.30;;;14.50;95.90;;;;;;5092579;28;20020;-76
2021/09/19 02:53:13;;;;;;;3.40;2.00;;;14.50;96.10;;;;;;5091957;28;20032;-77
2021/09/19 02:55:38;;;;;;;2.75;1.90;;;14.40;95.90;;;;;;5092474;28;20144;-77
2021/09/19 02:58:04;;;;;;;3.65;2.13;;;14.40;95.90;;;;;;5093300;28;20119;-77
2021/09/19 03:00:30;;;;;;;3.53;2.35;;;14.40;96.10;;;;;;5092231;28;20032;-76
2021/09/19 03:02:55;;;;;;;4.60;2.42;;;14.40;96.00;;;;;;5091925;28;20032;-78
2021/09/19 03:05:21;;;;;;;2.60;2.22;;;14.50;95.80;;;;;;5092156;28;20496;-76
2021/09/19 03:07:47;;;;;;;3.55;1.90;;;14.40;95.90;;;;;;5093531;28;20036;-76
2021/09/19 03:10:14;;;;;;;2.35;2.00;;;14.40;95.90;;;;;;5091418;28;20021;-76
2021/09/19 03:12:41;;;;;;;2.72;2.13;;;14.40;95.80;;;;;;5092375;28;20032;-76
2021/09/19 03:15:08;;;;;;;3.53;2.33;;;14.40;95.80;;;;;;5091632;28;20024;-77
2021/09/19 03:17:33;;;;;;;3.03;2.15;;;14.40;95.90;;;;;;5092257;28;20024;-76
2021/09/19 03:19:59;;;;;;;3.45;1.92;;;14.40;95.90;;;;;;5092022;28;20457;-76
2021/09/19 03:22:25;;;;;;;2.67;2.10;;;14.40;95.90;;;;;;5093648;28;20024;-76
2021/09/19 03:24:50;;;;;;;3.25;2.08;;;14.40;95.80;;;;;;5093378;28;20028;-76
2021/09/19 03:27:16;;;;;;;2.40;1.90;;;14.30;95.80;;;;;;5092958;28;20554;-76
2021/09/19 03:29:41;;;;;;;2.65;2.15;;;14.30;95.90;;;;;;5092160;28;20123;-76
2021/09/19 03:32:07;;;;;;;2.15;1.90;;;14.30;95.90;;;;;;5092141;28;20031;-76
2021/09/19 03:34:34;;;;;;;2.70;1.98;;;14.30;95.90;;;;;;5093409;28;20024;-76
2021/09/19 03:37:00;;;;;;;2.40;1.83;;;14.20;95.90;;;;;;5092724;28;20036;-76
2021/09/19 03:39:26;;;;;;;3.10;1.92;;;14.20;95.80;;;;;;5092304;28;20028;-76
2021/09/19 03:41:52;;;;;;;2.53;2.10;;;14.20;95.90;;;;;;5092068;28;20024;-76
2021/09/19 03:44:18;;;;;;;2.00;1.60;;;14.20;96.00;;;;;;5091445;28;20103;-76
2021/09/19 03:46:43;;;;;;;2.25;2.00;;;14.10;96.00;;;;;;5093131;28;20468;-76
2021/09/19 03:49:09;;;;;;;2.33;1.90;;;14.20;95.90;;;;;;5091913;28;20465;-77
2021/09/19 03:51:35;;;;;;;2.40;1.83;;;14.10;95.90;;;;;;5093182;28;20464;-76
2021/09/19 03:54:00;;;;;;;2.13;1.85;;;14.10;95.90;;;;;;5093834;28;20044;-76
2021/09/19 03:56:26;;;;;;;2.17;1.75;;;14.10;96.00;;;;;;5096842;28;20443;-76
2021/09/19 03:58:51;;;;;;;2.38;2.05;;;14.10;95.90;;;;;;5097213;28;20028;-76
2021/09/19 04:01:17;;;;;;;3.95;2.10;;;14.00;96.00;;;;;;5095358;28;20534;-76
2021/09/19 04:03:43;;;;;;;3.25;2.22;;;14.00;96.00;;;;;;5096129;28;20028;-76
2021/09/19 04:06:09;;;;;;;2.38;1.90;;;14.00;96.10;;;;;;5094895;28;20499;-76
2021/09/19 04:08:35;;;;;;;2.33;1.80;;;14.00;96.10;;;;;;5095628;28;20024;-76
2021/09/19 04:11:00;;;;;;;3.17;1.70;;;14.00;96.00;;;;;;5095254;28;20388;-77
2021/09/19 04:13:26;;;;;;;2.90;1.75;;;13.90;96.10;;;;;;5095993;28;20031;-76
2021/09/19 04:15:52;;;;;;;2.78;2.00;;;13.90;96.00;;;;;;5095517;28;20032;-76
2021/09/19 04:18:17;;;;;;;2.50;2.00;;;13.90;96.10;;;;;;5095132;28;20024;-77
2021/09/19 04:20:44;;;;;;;2.88;1.77;;;13.90;96.10;;;;;;5095552;28;20023;-76
2021/09/19 04:23:10;;;;;;;2.97;1.80;;;13.80;96.10;;;;;;5095538;28;20030;-77
2021/09/19 04:25:36;;;;;;;3.35;1.75;;;13.90;96.10;;;;;;5095464;28;20492;-77
2021/09/19 04:28:02;;;;;;;2.20;1.52;;;13.80;96.10;;;;;;5096463;28;20028;-77
2021/09/19 04:30:28;;;;;;;4.63;1.90;;;13.80;96.20;;;;;;5096483;28;20046;-77
2021/09/19 04:32:54;;;;;;;2.05;1.67;;;13.80;96.10;;;;;;5096673;28;20460;-77
2021/09/19 04:35:19;;;;;;;2.97;1.80;;;13.80;96.10;;;;;;5095897;28;20029;-77
2021/09/19 04:37:45;;;;;;;2.65;1.80;;;13.70;96.20;;;;;;5095501;28;20028;-77
2021/09/19 04:40:11;;;;;;;4.75;1.63;;;13.70;96.50;;;;;;5096036;28;20027;-77
2021/09/19 04:42:37;;;;;;;2.63;1.73;;;13.70;96.20;;;;;;5095528;28;20056;-77
2021/09/19 04:45:05;;;;;;;3.20;1.70;;;13.70;96.20;;;;;;5095778;28;20380;-77
2021/09/19 04:47:31;;;;;;;2.83;1.77;;;13.70;96.20;;;;;;5096470;28;20021;-77
2021/09/19 04:49:56;;;;;;;2.53;1.60;;;13.60;96.30;;;;;;5095305;28;20027;-77
2021/09/19 04:52:22;;;;;;;3.45;1.50;;;13.60;96.30;;;;;;5094580;28;20361;-76
2021/09/19 04:54:48;;;;;;;1.80;1.60;;;13.60;96.20;;;;;;5096052;28;20424;-76
2021/09/19 04:57:13;;;;;;;2.17;1.45;;;13.60;96.10;;;;;;5094193;28;20051;-76
2021/09/19 04:59:39;;;;;;;3.10;1.70;;;13.60;96.20;;;;;;5095115;28;20024;-76
2021/09/19 05:02:04;;;;;;;3.65;1.63;;;13.50;96.30;;;;;;5094487;28;20024;-76
2021/09/19 05:04:31;;;;;;;1.77;1.50;;;13.50;96.30;;;;;;5095220;28;20030;-76
2021/09/19 05:06:56;;;;;;;1.90;1.70;;;13.60;96.40;;;;;;5094619;28;20035;-76
2021/09/19 05:09:23;;;;;;;2.13;1.38;;;13.60;96.30;;;;;;5094035;28;20147;-77
2021/09/19 05:11:48;;;;;;;3.92;1.83;;;13.60;96.30;;;;;;5094433;28;20050;-76
2021/09/19 05:14:14;;;;;;;3.28;1.73;;;13.60;96.30;;;;;;5093878;28;20027;-76
2021/09/19 05:16:40;;;;;;;1.65;1.45;;;13.60;96.30;;;;;;5095408;28;20040;-76
2021/09/19 05:19:06;;;;;;;4.07;1.60;;;13.60;96.10;;;;;;5094785;28;20031;-76
2021/09/19 05:21:32;;;;;;;1.73;1.50;;;13.60;96.20;;;;;;5094243;28;20524;-76
2021/09/19 05:23:57;;;;;;;4.65;1.73;;;13.60;96.10;;;;;;5095289;28;20157;-76
2021/09/19 05:26:23;;;;;;;1.98;1.38;;;13.60;96.20;;;;;;5094718;28;20139;-76
2021/09/19 05:28:49;;;;;;;1.63;1.45;;;13.60;96.10;;;;;;5095533;28;20396;-76
2021/09/19 05:31:15;;;;;;;2.38;1.45;;;13.60;96.20;;;;;;5093605;28;20100;-76
2021/09/19 05:33:41;;;;;;;3.15;2.05;;;13.60;96.20;;;;;;5094354;28;20024;-76
2021/09/19 05:36:07;;;;;;;2.13;1.60;;;13.60;96.20;;;;;;5093408;28;20039;-76
2021/09/19 05:38:33;;;;;;;5.20;1.80;;;13.60;96.50;;;;;;5094171;28;20484;-77
2021/09/19 05:40:59;;;;;;;1.75;1.45;;;13.60;96.20;;;;;;5095600;28;20069;-77
2021/09/19 05:43:24;;;;;;;1.92;1.40;;;13.50;96.20;;;;;;5093344;28;20050;-76
2021/09/19 05:45:50;;;;;;;2.08;1.40;;;13.50;96.20;;;;;;5094331;28;20487;-76
2021/09/19 05:48:16;;;;;;;2.20;1.70;;;13.50;96.20;;;;;;5093398;28;20030;-76
2021/09/19 05:50:42;;;;;;;1.77;1.38;;;13.50;96.20;;;;;;5093978;28;20050;-76
2021/09/19 05:53:07;;;;;;;1.85;1.55;;;13.50;96.20;;;;;;5093311;28;20031;-76
2021/09/19 05:55:33;;;;;;;1.88;1.48;;;13.50;96.20;;;;;;5093448;28;20469;-76
2021/09/19 05:57:58;;;;;;;2.40;1.67;;;13.60;96.30;;;;;;5094537;28;20032;-76
2021/09/19 06:00:24;;;;;;;1.63;1.42;;;13.60;96.20;;;;;;5092943;28;20024;-77
2021/09/19 06:02:50;;;;;;;1.77;1.52;;;13.60;96.10;;;;;;5093890;28;20028;-77
2021/09/19 06:05:15;;;;;;;3.58;1.55;;;13.50;96.10;;;;;;5094175;28;20424;-76
2021/09/19 06:07:41;;;;;;;1.90;1.52;;;13.60;96.10;;;;;;5094672;28;20052;-76
2021/09/19 06:10:08;;;;;;;3.42;1.63;;;13.60;96.20;;;;;;5092623;28;20020;-77
2021/09/19 06:12:33;;;;;;;2.28;1.63;;;13.60;96.20;;;;;;5093742;28;20028;-76
2021/09/19 06:14:59;;;;;;;4.10;1.50;;;13.60;96.20;;;;;;5094554;28;20376;-77
2021/09/19 06:17:24;;;;;;;1.92;1.45;;;13.60;96.60;;;;;;5091900;28;20024;-76
2021/09/19 06:19:51;;;;;;;2.05;1.65;;;13.60;96.20;;;;;;5094356;28;20028;-76
2021/09/19 06:22:18;;;;;;;5.38;1.65;;;13.60;96.30;;;;;;5092658;28;20058;-77
2021/09/19 06:24:44;;;;;;;1.83;1.38;;;13.60;96.30;;;;;;5093233;28;20028;-76
2021/09/19 06:27:13;;;;;;;2.58;1.55;;;13.70;96.20;;;;;;5092691;28;20469;-77
2021/09/19 06:29:39;;;;;;;2.95;1.80;;;13.70;96.30;;;;;;5093058;28;20028;-76
2021/09/19 06:32:07;;;;;;;2.80;1.90;;;13.70;96.30;;;;;;5092996;28;20027;-76
2021/09/19 06:34:34;;;;;;;2.90;2.22;;;13.70;96.30;;;;;;5093242;28;20031;-76
2021/09/19 06:37:00;;;;;;;3.97;1.60;;;13.80;96.30;;;;;;5093024;28;20032;-76
2021/09/19 06:39:25;;;;;;;1.83;1.63;;;13.70;96.30;;;;;;5092151;28;20031;-76
2021/09/19 06:41:51;;;;;;;3.08;1.77;;;13.80;96.30;;;;;;5093510;28;20024;-76
2021/09/19 06:44:17;;;;;;;2.60;1.80;;;13.80;96.30;;;;;;5092307;28;20532;-76
2021/09/19 06:46:43;;;;;;;3.38;1.90;;;13.80;96.30;;;;;;5092914;28;20085;-77
2021/09/19 06:49:09;;;;;;;2.65;1.85;;;13.80;96.30;;;;;;5092457;28;20103;-76
2021/09/19 06:51:34;;;;;;;2.75;1.92;;;13.90;96.40;;;;;;5093033;28;20461;-76
2021/09/19 06:54:00;;;;;;;3.65;1.80;;;13.90;96.40;;;;;;5092788;28;20088;-77
2021/09/19 06:56:26;;;;;;;2.33;1.58;;;14.00;96.40;;;;;;5092487;28;20043;-77
2021/09/19 06:58:52;;;;;;;4.60;1.65;;;14.00;96.40;;;;;;5092621;28;20477;-76
2021/09/19 07:01:21;;;;;;;2.20;1.63;;;14.10;96.70;;;;;;5091879;28;20067;-76
2021/09/19 07:03:47;;;;;;;2.10;1.70;;;14.10;96.40;;;;;;5092578;28;20122;-77
2021/09/19 07:06:12;;;;;;;1.83;1.60;;;14.10;96.40;;;;;;5092108;28;20060;-76
2021/09/19 07:08:38;;;;;;;2.40;1.80;;;14.20;96.30;;;;;;5092670;28;20031;-77
2021/09/19 07:11:04;;;;;;;2.15;1.55;;;14.20;96.20;;;;;;5092760;28;20095;-76
2021/09/19 07:13:29;;;;;;;2.83;1.52;;;14.30;96.20;;;;;;5092940;28;20034;-76
2021/09/19 07:15:55;;;;;;;2.45;1.55;;;14.30;96.10;;;;;;5092106;28;20378;-75
2021/09/19 07:18:22;;;;;;;2.50;1.73;;;14.30;96.00;;;;;;5092006;28;20081;-76
2021/09/19 07:20:48;;;;;;;2.47;1.70;;;14.30;96.10;;;;;;5093601;28;20078;-76
2021/09/19 07:23:13;;;;;;;2.00;1.80;;;14.40;96.00;;;;;;5091955;28;20024;-76
2021/09/19 07:25:40;;;;;;;2.08;1.73;;;14.40;95.80;;;;;;5093608;28;20423;-76
2021/09/19 07:28:06;;;;;;;2.08;1.70;;;14.50;95.80;;;;;;5127652;27;20032;-76
2021/09/19 07:30:33;;;;;;;3.03;1.60;;;14.50;95.80;;;;;;5096390;28;20145;-76
2021/09/19 07:32:59;;;;;;;2.90;1.80;;;14.60;95.90;;;;;;5097982;28;20410;-76
2021/09/19 07:35:24;;;;;;;2.83;1.80;;;14.60;96.00;;;;;;5096696;28;20043;-76
2021/09/19 07:37:50;;;;;;;2.35;1.70;;;14.70;96.00;;;;;;5096523;28;20024;-76
2021/09/19 07:40:16;;;;;;;2.60;1.88;;;14.70;95.50;;;;;;5095566;28;20464;-77
2021/09/19 07:42:42;;;;;;;2.58;1.60;;;14.80;95.70;;;;;;5097201;28;20028;-76
2021/09/19 07:45:09;;;;;;;2.70;1.73;;;14.80;95.40;;;;;;5096250;28;20028;-76
2021/09/19 07:47:35;;;;;;;2.38;1.85;;;14.80;95.40;;;;;;5095563;28;20518;-76
2021/09/19 07:50:01;;;;;;;2.78;1.70;;;14.90;95.50;;;;;;5097199;28;20028;-76
2021/09/19 07:52:27;;;;;;;2.95;1.67;;;14.90;95.90;;;;;;5096165;28;20032;-76
2021/09/19 07:54:54;;;;;;;2.20;1.85;;;15.00;95.60;;;;;;5096787;28;20040;-76
2021/09/19 07:57:24;;;;;;;2.13;1.60;;;15.10;95.30;;;;;;5095014;28;20043;-76
2021/09/19 07:59:51;;;;;;;2.20;1.60;;;15.20;95.20;;;;;;5095579;28;20028;-77
2021/09/19 08:02:17;;;;;;;4.85;1.90;;;15.20;94.90;;;;;;5094895;28;20388;-77
2021/09/19 08:04:43;;;;;;;2.53;1.90;;;15.20;94.80;;;;;;5095463;28;20053;-77
2021/09/19 08:07:09;;;;;;;2.13;1.63;;;15.20;94.60;;;;;;5096523;28;20111;-77
2021/09/19 08:09:35;;;;;;;3.58;1.58;;;15.20;94.70;;;;;;5095029;28;20028;-77
2021/09/19 08:12:01;;;;;;;5.20;1.50;;;15.30;94.60;;;;;;5095636;28;20100;-77
2021/09/19 08:14:27;;;;;;;4.03;1.70;;;15.40;94.50;;;;;;5094739;28;20028;-77
2021/09/19 08:16:52;;;;;;;1.85;1.58;;;15.40;94.60;;;;;;5095148;28;20435;-76
2021/09/19 08:19:18;;;;;;;1.98;1.50;;;15.40;94.80;;;;;;5096052;28;20078;-76
2021/09/19 08:21:45;;;;;;;1.73;1.55;;;15.40;94.60;;;;;;5095297;28;20020;-76
2021/09/19 08:24:11;;;;;;;1.90;1.50;;;15.40;94.60;;;;;;5096334;28;20085;-76
2021/09/19 08:26:38;;;;;;;3.40;1.83;;;15.50;94.70;;;;;;5094507;28;20063;-76
2021/09/19 08:29:05;;;;;;;4.13;2.33;;;15.50;94.60;;;;;;5096309;28;20103;-76
2021/09/19 08:31:31;;;;;;;2.72;1.63;;;15.60;95.10;;;;;;5094073;28;20024;-76
2021/09/19 08:33:56;;;;;;;4.47;1.90;;;15.70;94.70;;;;;;5096076;28;20024;-76
2021/09/19 08:36:24;;;;;;;4.00;1.98;;;15.70;94.40;;;;;;5094329;28;20085;-76
2021/09/19 08:38:50;;;;;;;3.10;1.75;;;15.80;94.40;;;;;;5094858;28;20380;-76
2021/09/19 08:41:17;;;;;;;2.25;1.65;;;15.80;94.60;;;;;;5094715;28;20039;-77
2021/09/19 08:43:47;;;;;;;2.05;1.70;;;15.90;94.50;;;;;;5095001;28;20035;-76
2021/09/19 08:46:15;;;;;;;2.45;1.98;;;15.90;94.10;;;;;;5096048;28;20032;-76
2021/09/19 08:48:41;;;;;;;1.60;1.48;;;16.00;94.10;;;;;;5094932;28;20499;-76
2021/09/19 08:51:07;;;;;;;2.88;1.83;;;16.00;94.20;;;;;;5094815;28;20036;-77
2021/09/19 08:53:33;;;;;;;2.33;1.70;;;16.10;94.30;;;;;;5095064;28;20142;-76
2021/09/19 08:55:59;;;;;;;3.17;1.98;;;16.20;94.20;;;;;;5094476;28;20036;-77
2021/09/19 08:58:25;;;;;;;3.10;1.90;;;16.20;93.60;;;;;;5093942;28;20111;-76
2021/09/19 09:00:51;;;;;;;2.10;1.90;;;16.20;93.70;;;;;;5094668;28;20124;-77
2021/09/19 09:03:23;;;;;;;3.25;2.00;;;16.20;93.50;;;;;;5094088;28;20078;-77
2021/09/19 09:06:05;;;;;;;2.30;1.73;;;16.30;93.50;;;;;;5095791;28;20020;-77
2021/09/19 09:08:32;;;;;;;3.75;2.05;;;16.30;93.20;;;;;;5094512;28;20103;-77
2021/09/19 09:11:00;;;;;;;2.42;1.80;;;16.40;93.30;;;;;;5094537;28;20032;-78
2021/09/19 09:13:29;;;;;;;2.42;1.85;;;16.40;93.60;;;;;;5094246;28;20058;-78
2021/09/19 09:16:03;;;;;;;7.07;1.98;;;16.40;93.50;;;;;;5095625;28;20052;-78
2021/09/19 09:18:36;;;;;;;3.08;2.22;;;16.40;93.50;;;;;;5093932;28;20027;-78
2021/09/19 09:21:06;;;;;;;2.35;1.95;;;16.50;93.30;;;;;;5095564;28;20020;-78
2021/09/19 09:23:36;;;;;;;2.15;1.65;;;16.60;93.20;;;;;;5093690;28;20035;-78
2021/09/19 09:26:21;;;;;;;8.55;1.88;;;16.60;93.50;;;;;;5093973;28;20043;-76
2021/09/19 09:28:54;;;;;;;4.38;2.22;;;16.70;93.60;;;;;;5095229;28;20039;-76
2021/09/19 09:31:27;;;;;;;2.92;1.80;;;16.80;93.20;;;;;;5093224;28;20021;-77
2021/09/19 09:34:12;;;;;;;2.85;1.85;;;16.80;93.40;;;;;;5093894;28;20024;-77
2021/09/19 09:36:55;;;;;;;1.95;1.73;;;16.90;92.90;;;;;;5092828;28;20400;-77
2021/09/19 09:39:34;;;;;;;3.45;1.80;;;16.90;92.90;;;;;;5093068;28;20107;-76
2021/09/19 09:42:00;;;;;;;2.53;2.00;;;17.00;92.80;;;;;;5094504;28;20021;-77
2021/09/19 09:44:29;;;;;;;2.53;1.75;;;17.00;93.20;;;;;;5093030;28;20038;-77
2021/09/19 09:46:55;;;;;;;2.15;1.85;;;17.10;92.90;;;;;;5093522;28;20086;-76
2021/09/19 09:49:33;;;;;;;2.92;2.30;;;17.10;92.50;;;;;;5092827;28;20023;-77
2021/09/19 09:52:04;;;;;;;3.35;2.13;;;17.10;92.30;;;;;;5094534;28;20031;-77
2021/09/19 09:54:46;;;;;;;2.63;2.10;;;17.20;92.40;;;;;;5092495;28;20044;-76
2021/09/19 09:57:14;;;;;;;2.88;1.60;;;17.20;92.30;;;;;;5094275;28;20066;-75
2021/09/19 09:59:44;;;;;;;2.00;1.90;;;17.30;92.20;;;;;;5092896;28;20063;-77
2021/09/19 10:02:12;;;;;;;2.72;2.00;;;17.40;92.10;;;;;;5094429;28;20103;-76
2021/09/19 10:04:38;;;;;;;4.97;1.65;;;17.40;92.10;;;;;;5089785;28;20457;-75
2021/09/19 10:07:04;;;;;;;3.38;1.80;;;17.40;91.90;;;;;;5094089;28;20020;-76
2021/09/19 10:09:30;;;;;;;1.90;1.60;;;17.50;92.40;;;;;;5092245;28;20031;-76
2021/09/19 10:11:56;;;;;;;1.88;1.70;;;17.50;92.10;;;;;;5091847;28;20027;-75
2021/09/19 10:14:22;;;;;;;2.10;1.58;;;17.50;92.10;;;;;;5091403;28;20024;-76
2021/09/19 10:16:48;;;;;;;3.67;1.80;;;17.50;92.70;;;;;;5092286;28;20032;-76
2021/09/19 10:19:20;;;;;;;2.42;1.80;;;17.60;92.40;;;;;;5093546;28;20027;-76
2021/09/19 10:21:48;;;;;;;2.22;1.70;;;17.60;91.60;;;;;;5093248;28;20020;-75
2021/09/19 10:24:14;;;;;;;2.40;1.80;;;17.70;91.80;;;;;;5091948;28;20028;-76
2021/09/19 10:26:58;;;;;;;3.30;2.42;;;17.70;91.50;;;;;;5092010;28;20036;-76
2021/09/19 10:29:28;;;;;;;2.72;2.15;;;17.90;91.50;;;;;;5092802;28;20126;-76
2021/09/19 10:31:57;;;;;;;2.47;1.95;;;17.80;91.40;;;;;;5091760;28;20526;-77
2021/09/19 10:34:30;;;;;;;2.72;2.00;;;17.90;91.50;;;;;;5091134;28;20024;-76
2021/09/19 10:36:57;;;;;;;1.95;1.75;;;17.90;91.00;;;;;;5091355;28;20036;-75
2021/09/19 10:39:40;;;;;;;2.30;1.90;;;17.90;91.20;;;;;;5090330;28;20019;-76
2021/09/19 10:42:10;;;;;;;2.70;2.22;;;17.90;91.20;;;;;;5091095;28;20035;-76
2021/09/19 10:44:45;;;;;;;2.70;2.15;;;18.10;91.40;;;;;;5092171;28;20381;-75
2021/09/19 10:47:11;;;;;;;2.72;1.90;;;18.20;91.30;;;;;;5091427;28;20603;-75
2021/09/19 10:49:39;;;;;;;2.70;2.00;;;18.20;91.30;;;;;;5090884;28;20024;-75
2021/09/19 10:52:06;;;;;;;2.40;2.05;;;18.20;91.20;;;;;;5091031;28;20481;-76
2021/09/19 10:54:46;;;;;;;3.78;2.30;;;18.30;91.10;;;;;;5090606;28;20055;-77
2021/09/19 10:57:19;;;;;;;2.53;1.98;;;18.40;90.60;;;;;;5091229;28;20036;-76
2021/09/19 11:00:12;;;;;;;2.78;1.90;;;18.40;90.70;;;;;;5090972;28;20042;-75
2021/09/19 11:02:58;;;;;;;2.20;2.00;;;18.50;90.60;;;;;;5091386;28;20461;-76
2021/09/19 11:05:47;;;;;;;3.22;1.98;;;18.60;90.80;;;;;;5113218;28;20032;-82
2021/09/19 11:08:38;;;;;;;3.20;2.15;;;18.60;90.10;;;;;;5092494;28;20035;-77
2021/09/19 11:11:07;;;;;;;3.00;2.47;;;18.60;89.80;;;;;;5090927;28;20028;-75
2021/09/19 11:13:53;;;;;;;3.33;2.58;;;18.70;89.20;;;;;;5091721;28;20024;-75
2021/09/19 11:16:22;;;;;;;3.05;2.20;;;18.70;89.10;;;;;;5092110;28;20032;-74
2021/09/19 11:19:02;;;;;;;2.70;2.17;;;18.80;88.70;;;;;;5091080;28;20028;-76
2021/09/19 11:21:29;;;;;;;7.25;2.35;;;18.80;88.50;;;;;;5090653;28;20035;-75
2021/09/19 11:24:14;;;;;;;3.08;2.33;;;18.80;89.20;;;;;;5091852;28;20106;-75
2021/09/19 11:26:48;;;;;;;4.53;2.38;;;18.90;88.70;;;;;;5091790;28;20032;-75
2021/09/19 11:29:23;;;;;;;3.22;2.28;;;18.90;88.50;;;;;;5091983;28;20024;-74
2021/09/19 11:31:49;;;;;;;2.70;2.20;;;19.00;89.00;;;;;;5090484;28;20031;-75
2021/09/19 11:34:20;;;;;;;3.78;2.80;;;19.10;88.70;;;;;;5092030;28;20028;-74
2021/09/19 11:36:49;;;;;;;2.63;1.83;;;19.10;87.60;;;;;;5090171;28;20036;-74
2021/09/19 11:39:16;;;;;;;2.63;2.28;;;19.20;87.80;;;;;;5091056;28;20032;-74
2021/09/19 11:41:43;;;;;;;6.72;2.30;;;19.20;88.10;;;;;;5090388;28;20389;-74
2021/09/19 11:44:12;;;;;;;3.83;2.30;;;19.40;88.00;;;;;;5090886;28;20380;-74
2021/09/19 11:46:45;;;;;;;3.17;2.17;;;19.40;87.00;;;;;;5091544;28;20036;-74
2021/09/19 11:49:13;;;;;;;2.53;2.13;;;19.40;86.40;;;;;;5090963;28;20032;-74
2021/09/19 11:51:41;;;;;;;3.30;2.22;;;19.50;86.90;;;;;;5090714;28;20056;-75
2021/09/19 11:54:09;;;;;;;2.17;1.98;;;19.60;86.90;;;;;;5090346;28;20494;-75
2021/09/19 11:56:37;;;;;;;2.17;1.98;;;19.80;87.30;;;;;;5091291;28;20074;-75
2021/09/19 11:59:03;;;;;;;2.38;2.05;;;20.00;87.30;;;;;;5090844;28;20062;-75
2021/09/19 12:01:29;;;;;;;2.58;2.28;;;20.00;85.70;;;;;;5090142;28;20028;-75
2021/09/19 12:04:12;;;;;;;4.43;2.10;;;19.90;84.20;;;;;;5090610;28;20115;-75
2021/09/19 12:06:41;;;;;;;2.75;2.03;;;19.90;83.60;;;;;;5090998;28;20036;-74
2021/09/19 12:09:18;;;;;;;2.65;2.35;;;19.80;84.30;;;;;;5124525;28;20119;-75
2021/09/19 12:11:50;;;;;;;2.85;2.10;;;19.80;84.80;;;;;;5091689;28;20016;-76
2021/09/19 12:14:22;;;;;;;3.40;2.25;;;19.80;84.40;;;;;;5124409;27;20028;-75
2021/09/19 12:17:02;;;;;;;3.05;2.55;;;20.00;83.90;;;;;;5093929;28;20036;-76
2021/09/19 12:19:29;;;;;;;2.55;2.35;;;20.20;82.50;;;;;;5093499;28;20069;-76
2021/09/19 12:22:04;;;;;;;3.35;2.30;;;20.20;82.20;;;;;;5128472;27;20020;-76
2021/09/19 12:24:33;;;;;;;2.60;2.33;;;20.20;82.50;;;;;;5095514;28;20043;-75
2021/09/19 12:27:13;;;;;;;3.92;2.40;;;20.20;82.60;;;;;;5094302;28;20063;-76
2021/09/19 12:29:46;;;;;;;2.95;2.30;;;20.60;82.40;;;;;;5093793;28;20114;-76
2021/09/19 12:32:12;;;;;;;2.47;2.00;;;21.00;81.30;;;;;;5095804;28;20103;-76
2021/09/19 12:34:37;;;;;;;3.10;1.90;;;21.20;80.20;;;;;;5095080;28;20058;-76
2021/09/19 12:37:03;;;;;;;4.38;2.33;;;21.30;80.50;;;;;;5093768;28;20036;-75
2021/09/19 12:39:31;;;;;;;2.38;1.90;;;21.30;80.60;;;;;;5093054;28;20420;-75
2021/09/19 12:42:00;;;;;;;2.33;2.13;;;21.10;80.80;;;;;;5094900;28;20039;-75
2021/09/19 12:44:28;;;;;;;3.33;2.38;;;21.10;80.80;;;;;;5093886;28;20380;-75
2021/09/19 12:46:57;;;;;;;3.00;2.10;;;20.90;81.50;;;;;;5094957;28;20020;-74
2021/09/19 12:49:32;;;;;;;2.72;2.08;;;20.80;81.00;;;;;;5093653;28;20020;-75